createdAt,value
2019-01-25T00:01:05.295Z,-1
2019-01-25T00:03:09.782Z,-1.06
2019-01-25T00:05:05.173Z,-1.06
2019-01-25T00:07:05.217Z,-1.06
2019-01-25T00:08:22.127Z,-1.06
2019-01-25T00:09:05.228Z,-1.06
2019-01-25T00:11:05.232Z,-1.06
2019-01-25T00:13:05.222Z,-1.06
2019-01-25T00:15:05.218Z,-1.06
2019-01-25T00:17:05.293Z,-1
2019-01-25T00:19:05.212Z,-1
2019-01-25T00:21:05.209Z,-1.06
2019-01-25T00:23:05.291Z,-1
2019-01-25T00:23:22.224Z,-1
2019-01-25T00:25:05.228Z,-1
2019-01-25T00:27:05.206Z,-1.06
2019-01-25T00:29:05.205Z,-1.06
2019-01-25T00:31:05.210Z,-1
2019-01-25T00:33:05.216Z,-1.06
2019-01-25T00:35:05.219Z,-1
2019-01-25T00:37:05.206Z,-1
2019-01-25T00:38:22.174Z,-1.06
2019-01-25T00:39:05.157Z,-1.06
2019-01-25T00:41:05.214Z,-1
2019-01-25T00:43:05.215Z,-1
2019-01-25T00:45:05.198Z,-1.06
2019-01-25T00:47:05.221Z,-1.06
2019-01-25T00:49:05.202Z,-1.06
2019-01-25T00:51:05.188Z,-1.06
2019-01-25T00:53:05.208Z,-1
2019-01-25T00:53:22.123Z,-1
2019-01-25T00:55:05.209Z,-1.06
2019-01-25T00:57:06.088Z,-1
2019-01-25T00:59:05.208Z,-0.94
2019-01-25T01:01:05.228Z,-1
2019-01-25T01:03:05.149Z,-1.06
2019-01-25T01:05:05.294Z,-1.06
2019-01-25T01:07:05.231Z,-1
2019-01-25T01:08:22.107Z,-1
2019-01-25T01:09:05.231Z,-1
2019-01-25T01:11:05.210Z,-1
2019-01-25T01:13:05.213Z,-0.94
2019-01-25T01:15:05.220Z,-1
2019-01-25T01:17:05.223Z,-1
2019-01-25T01:19:05.235Z,-1
2019-01-25T01:21:05.208Z,-1
2019-01-25T01:23:05.206Z,-1
2019-01-25T01:23:22.140Z,-1
2019-01-25T01:25:05.209Z,-1
2019-01-25T01:27:05.289Z,-1
2019-01-25T01:29:05.214Z,-1
2019-01-25T01:31:05.167Z,-1
2019-01-25T01:33:05.196Z,-1
2019-01-25T01:35:05.243Z,-1
2019-01-25T01:37:05.207Z,-0.94
2019-01-25T01:38:22.197Z,-0.94
2019-01-25T01:39:05.209Z,-0.94
2019-01-25T01:41:05.234Z,-0.94
2019-01-25T01:43:05.189Z,-0.94
2019-01-25T01:45:05.154Z,-0.94
2019-01-25T01:47:06.110Z,-0.94
2019-01-25T01:49:05.238Z,-0.94
2019-01-25T01:51:05.200Z,-0.88
2019-01-25T01:53:05.265Z,-0.88
2019-01-25T01:53:22.152Z,-0.88
2019-01-25T01:55:05.214Z,-0.88
2019-01-25T01:57:05.226Z,-0.88
2019-01-25T01:59:05.199Z,-0.88
2019-01-25T02:01:05.079Z,-0.81
2019-01-25T02:03:05.225Z,-0.81
2019-01-25T02:05:05.220Z,-0.81
2019-01-25T02:07:05.223Z,-0.75
2019-01-25T02:08:22.176Z,-0.81
2019-01-25T02:09:05.198Z,-0.81
2019-01-25T02:11:05.211Z,-0.81
2019-01-25T02:13:05.221Z,-0.75
2019-01-25T02:15:05.255Z,-0.75
2019-01-25T02:17:05.195Z,-0.75
2019-01-25T02:19:05.221Z,-0.75
2019-01-25T02:21:05.207Z,-0.81
2019-01-25T02:23:05.295Z,-0.75
2019-01-25T02:23:22.119Z,-0.75
2019-01-25T02:25:05.211Z,-0.75
2019-01-25T02:27:05.213Z,-0.81
2019-01-25T02:29:05.158Z,-0.81
2019-01-25T02:31:05.234Z,-0.81
2019-01-25T02:33:05.225Z,-0.75
2019-01-25T02:35:05.227Z,-0.69
2019-01-25T02:37:06.100Z,-0.69
2019-01-25T02:38:23.183Z,-0.69
2019-01-25T02:39:05.222Z,-0.75
2019-01-25T02:41:05.227Z,-0.75
2019-01-25T02:43:06.113Z,-0.75
2019-01-25T02:45:05.176Z,-0.75
2019-01-25T02:47:05.230Z,-0.75
2019-01-25T02:49:05.204Z,-0.69
2019-01-25T02:51:05.213Z,-0.69
2019-01-25T02:53:05.228Z,-0.81
2019-01-25T02:53:22.159Z,-0.75
2019-01-25T02:55:05.226Z,-0.75
2019-01-25T02:57:05.228Z,-0.75
2019-01-25T02:59:05.210Z,-0.75
2019-01-25T03:01:05.156Z,-0.75
2019-01-25T03:03:05.208Z,-0.69
2019-01-25T03:05:05.247Z,-0.75
2019-01-25T03:07:05.224Z,-0.81
2019-01-25T03:08:22.169Z,-0.81
2019-01-25T03:09:05.207Z,-0.81
2019-01-25T03:11:05.165Z,-0.75
2019-01-25T03:13:05.232Z,-0.75
2019-01-25T03:15:05.227Z,-0.75
2019-01-25T03:17:05.214Z,-0.75
2019-01-25T03:19:05.172Z,-0.75
2019-01-25T03:21:05.216Z,-0.75
2019-01-25T03:23:05.221Z,-0.69
2019-01-25T03:23:22.185Z,-0.69
2019-01-25T03:25:05.170Z,-0.69
2019-01-25T03:27:05.238Z,-0.69
2019-01-25T03:29:05.206Z,-0.69
2019-01-25T03:31:05.218Z,-0.69
2019-01-25T03:33:05.261Z,-0.69
2019-01-25T03:35:05.200Z,-0.69
2019-01-25T03:37:06.096Z,-0.69
2019-01-25T03:38:22.096Z,-0.69
2019-01-25T03:39:05.187Z,-0.69
2019-01-25T03:41:05.190Z,-0.69
2019-01-25T03:43:06.104Z,-0.69
2019-01-25T03:45:06.109Z,-0.69
2019-01-25T03:47:05.240Z,-0.75
2019-01-25T03:49:05.209Z,-0.69
2019-01-25T03:51:05.174Z,-0.69
2019-01-25T03:53:05.211Z,-0.75
2019-01-25T03:53:22.146Z,-0.69
2019-01-25T03:55:05.244Z,-0.69
2019-01-25T03:57:05.240Z,-0.69
2019-01-25T03:59:05.197Z,-0.75
2019-01-25T04:01:05.245Z,-0.69
2019-01-25T04:03:05.163Z,-0.69
2019-01-25T04:05:05.198Z,-0.69
2019-01-25T04:07:05.229Z,-0.69
2019-01-25T04:08:22.161Z,-0.69
2019-01-25T04:09:05.210Z,-0.69
2019-01-25T04:11:05.209Z,-0.75
2019-01-25T04:13:05.162Z,-0.69
2019-01-25T04:15:05.204Z,-0.69
2019-01-25T04:17:05.214Z,-0.69
2019-01-25T04:19:05.235Z,-0.75
2019-01-25T04:21:05.299Z,-0.75
2019-01-25T04:23:05.314Z,-0.69
2019-01-25T04:23:22.074Z,-0.69
2019-01-25T04:25:05.318Z,-0.69
2019-01-25T04:27:05.208Z,-0.75
2019-01-25T04:29:05.240Z,-0.69
2019-01-25T04:31:05.220Z,-0.69
2019-01-25T04:33:05.218Z,-0.69
2019-01-25T04:35:05.220Z,-0.69
2019-01-25T04:37:06.100Z,-0.63
2019-01-25T04:38:22.084Z,-0.63
2019-01-25T04:39:05.161Z,-0.69
2019-01-25T04:41:11.403Z,-0.69
2019-01-25T04:43:05.225Z,-0.63
2019-01-25T04:45:05.207Z,-0.63
2019-01-25T04:47:05.174Z,-0.69
2019-01-25T04:49:05.241Z,-0.69
2019-01-25T04:51:05.199Z,-0.69
2019-01-25T04:53:05.226Z,-0.69
2019-01-25T04:53:22.155Z,-0.69
2019-01-25T04:55:05.226Z,-0.75
2019-01-25T04:57:05.212Z,-0.69
2019-01-25T04:59:05.171Z,-0.75
2019-01-25T05:01:05.211Z,-0.69
2019-01-25T05:03:05.216Z,-0.69
2019-01-25T05:05:05.205Z,-0.75
2019-01-25T05:07:05.185Z,-0.69
2019-01-25T05:08:22.147Z,-0.69
2019-01-25T05:09:05.093Z,-0.69
2019-01-25T05:11:05.193Z,-0.75
2019-01-25T05:13:05.211Z,-0.75
2019-01-25T05:15:05.180Z,-0.69
2019-01-25T05:17:06.056Z,-0.69
2019-01-25T05:19:05.182Z,-0.69
2019-01-25T05:21:05.221Z,-0.69
2019-01-25T05:23:05.191Z,-0.69
2019-01-25T05:23:22.127Z,-0.69
2019-01-25T05:25:05.055Z,-0.69
2019-01-25T05:27:05.199Z,-0.69
2019-01-25T05:29:05.170Z,-0.69
2019-01-25T05:31:05.164Z,-0.56
2019-01-25T05:33:05.192Z,-0.63
2019-01-25T05:35:05.179Z,-0.63
2019-01-25T05:37:05.195Z,-0.63
2019-01-25T05:38:22.057Z,-0.63
2019-01-25T05:39:05.154Z,-0.63
2019-01-25T05:41:05.152Z,-0.63
2019-01-25T05:43:05.149Z,-0.63
2019-01-25T05:45:05.208Z,-0.63
2019-01-25T05:47:05.185Z,-0.63
2019-01-25T05:49:05.161Z,-0.63
2019-01-25T05:51:05.172Z,-0.63
2019-01-25T05:53:05.189Z,-0.63
2019-01-25T05:53:22.110Z,-0.63
2019-01-25T05:55:06.225Z,-0.63
2019-01-25T05:57:05.187Z,-0.63
2019-01-25T05:59:05.188Z,-0.56
2019-01-25T06:01:05.255Z,-0.56
2019-01-25T06:03:05.097Z,-0.56
2019-01-25T06:05:05.174Z,-0.56
2019-01-25T06:07:05.267Z,-0.56
2019-01-25T06:08:22.143Z,-0.63
2019-01-25T06:09:05.182Z,-0.63
2019-01-25T06:11:05.169Z,-0.56
2019-01-25T06:13:06.079Z,-0.63
2019-01-25T06:15:07.061Z,-0.63
2019-01-25T06:17:05.221Z,-0.63
2019-01-25T06:19:05.192Z,-0.56
2019-01-25T06:21:05.182Z,-0.56
2019-01-25T06:23:05.197Z,-0.56
2019-01-25T06:23:22.105Z,-0.63
2019-01-25T06:25:05.157Z,-0.63
2019-01-25T06:27:05.189Z,-0.56
2019-01-25T06:29:05.173Z,-0.56
2019-01-25T06:31:05.189Z,-0.56
2019-01-25T06:33:05.174Z,-0.56
2019-01-25T06:35:05.200Z,-0.5
2019-01-25T06:37:05.131Z,-0.56
2019-01-25T06:38:22.147Z,-0.56
2019-01-25T06:39:05.167Z,-0.56
2019-01-25T06:41:05.183Z,-0.5
2019-01-25T06:43:05.175Z,-0.5
2019-01-25T06:45:05.140Z,-0.56
2019-01-25T06:47:06.040Z,-0.5
2019-01-25T06:49:05.174Z,-0.5
2019-01-25T06:51:05.125Z,-0.5
2019-01-25T06:53:05.268Z,-0.44
2019-01-25T06:53:22.119Z,-0.44
2019-01-25T06:55:05.185Z,-0.44
2019-01-25T06:57:05.197Z,-0.5
2019-01-25T06:59:05.222Z,-0.5
2019-01-25T07:01:05.214Z,-0.44
2019-01-25T07:03:05.192Z,-0.44
2019-01-25T07:05:05.123Z,-0.44
2019-01-25T07:07:06.064Z,-0.5
2019-01-25T07:08:22.136Z,-0.5
2019-01-25T07:09:06.073Z,-0.5
2019-01-25T07:11:05.167Z,-0.44
2019-01-25T07:13:05.238Z,-0.5
2019-01-25T07:15:06.040Z,-0.44
2019-01-25T07:17:05.185Z,-0.5
2019-01-25T07:19:05.168Z,-0.44
2019-01-25T07:21:05.183Z,-0.5
2019-01-25T07:23:05.177Z,-0.5
2019-01-25T07:23:22.103Z,-0.5
2019-01-25T07:25:05.186Z,-0.56
2019-01-25T07:27:05.261Z,-0.5
2019-01-25T07:29:05.181Z,-0.5
2019-01-25T07:31:05.207Z,-0.5
2019-01-25T07:33:05.255Z,-0.44
2019-01-25T07:35:05.194Z,-0.5
2019-01-25T07:37:05.176Z,-0.44
2019-01-25T07:38:22.101Z,-0.5
2019-01-25T07:39:05.168Z,-0.5
2019-01-25T07:41:05.287Z,-0.44
2019-01-25T07:43:05.180Z,-0.44
2019-01-25T07:45:05.195Z,-0.44
2019-01-25T07:47:05.176Z,-0.38
2019-01-25T07:49:05.173Z,-0.38
2019-01-25T07:51:05.235Z,-0.44
2019-01-25T07:53:05.171Z,-0.5
2019-01-25T07:53:22.326Z,-0.5
2019-01-25T07:55:05.206Z,-0.56
2019-01-25T07:57:05.261Z,-0.56
2019-01-25T07:59:05.147Z,-0.63
2019-01-25T08:01:05.188Z,-0.69
2019-01-25T08:03:05.191Z,-0.75
2019-01-25T08:05:05.188Z,-0.69
2019-01-25T08:07:05.171Z,-0.75
2019-01-25T08:08:22.190Z,-0.75
2019-01-25T08:09:05.203Z,-0.75
2019-01-25T08:11:06.087Z,-0.69
2019-01-25T08:13:05.213Z,-0.69
2019-01-25T08:15:06.072Z,-0.69
2019-01-25T08:17:05.167Z,-0.75
2019-01-25T08:19:05.180Z,-0.69
2019-01-25T08:21:05.211Z,-0.63
2019-01-25T08:23:05.222Z,-0.63
2019-01-25T08:23:22.105Z,-0.69
2019-01-25T08:25:05.193Z,-0.56
2019-01-25T08:27:05.198Z,-0.5
2019-01-25T08:29:05.192Z,-0.5
2019-01-25T08:31:06.175Z,-0.44
2019-01-25T08:33:05.172Z,-0.44
2019-01-25T08:35:05.199Z,-0.44
2019-01-25T08:37:05.213Z,-0.44
2019-01-25T08:38:22.299Z,-0.5
2019-01-25T08:39:05.188Z,-0.44
2019-01-25T08:41:05.198Z,-0.44
2019-01-25T08:43:05.175Z,-0.44
2019-01-25T08:45:05.176Z,-0.44
2019-01-25T08:47:06.073Z,-0.44
2019-01-25T08:49:05.200Z,-0.44
2019-01-25T08:51:05.190Z,-0.44
2019-01-25T08:53:05.262Z,-0.44
2019-01-25T08:53:22.021Z,-0.44
2019-01-25T08:55:05.145Z,-0.38
2019-01-25T08:57:05.199Z,-0.44
2019-01-25T08:59:05.229Z,-0.44
2019-01-25T09:01:05.180Z,-0.38
2019-01-25T09:03:05.185Z,-0.44
2019-01-25T09:05:05.181Z,-0.38
2019-01-25T09:07:05.178Z,-0.38
2019-01-25T09:08:22.219Z,-0.38
2019-01-25T09:09:05.159Z,-0.31
2019-01-25T09:11:05.181Z,-0.31
2019-01-25T09:13:05.185Z,-0.25
2019-01-25T09:15:05.198Z,-0.31
2019-01-25T09:17:05.187Z,-0.31
2019-01-25T09:19:05.181Z,-0.31
2019-01-25T09:21:05.161Z,-0.25
2019-01-25T09:23:05.131Z,-0.19
2019-01-25T09:23:22.103Z,-0.19
2019-01-25T09:25:05.225Z,-0.25
2019-01-25T09:27:05.264Z,-0.25
2019-01-25T09:29:05.213Z,-0.19
2019-01-25T09:31:05.175Z,-0.19
2019-01-25T09:33:05.178Z,-0.13
2019-01-25T09:35:06.862Z,0
2019-01-25T09:37:05.188Z,-0.06
2019-01-25T09:38:22.145Z,-0.06
2019-01-25T09:39:05.145Z,-0.06
2019-01-25T09:41:05.197Z,-0.06
2019-01-25T09:43:05.185Z,-0.06
2019-01-25T09:45:05.188Z,-0.06
2019-01-25T09:47:05.173Z,-0.13
2019-01-25T09:49:05.149Z,-0.13
2019-01-25T09:51:05.289Z,-0.19
2019-01-25T09:53:05.201Z,-0.13
2019-01-25T09:53:22.169Z,-0.19
2019-01-25T09:55:05.176Z,-0.13
2019-01-25T09:57:05.143Z,-0.06
2019-01-25T09:59:06.082Z,0
2019-01-25T10:01:05.186Z,0.06
2019-01-25T10:03:05.164Z,0.13
2019-01-25T10:05:05.205Z,0.19
2019-01-25T10:07:05.206Z,0.31
2019-01-25T10:08:22.192Z,0.38
2019-01-25T10:09:06.140Z,0.38
2019-01-25T10:11:05.196Z,0.38
2019-01-25T10:13:05.194Z,0.44
2019-01-25T10:15:05.126Z,0.44
2019-01-25T10:17:05.187Z,0.5
2019-01-25T10:19:05.197Z,0.56
2019-01-25T10:21:05.272Z,0.56
2019-01-25T10:23:05.190Z,0.56
2019-01-25T10:23:22.097Z,0.56
2019-01-25T10:25:05.145Z,0.56
2019-01-25T10:27:05.181Z,0.63
2019-01-25T10:29:05.175Z,0.63
2019-01-25T10:31:05.263Z,0.63
2019-01-25T10:33:05.149Z,0.56
2019-01-25T10:35:05.186Z,0.5
2019-01-25T10:37:05.172Z,0.5
2019-01-25T10:38:22.147Z,0.44
2019-01-25T10:39:05.155Z,0.44
2019-01-25T10:41:05.183Z,0.44
2019-01-25T10:43:05.185Z,0.44
2019-01-25T10:45:06.078Z,0.5
2019-01-25T10:47:05.195Z,0.5
2019-01-25T10:49:05.200Z,0.63
2019-01-25T10:51:06.098Z,0.81
2019-01-25T10:53:05.194Z,1
2019-01-25T10:53:22.108Z,1.06
2019-01-25T10:55:05.157Z,1.19
2019-01-25T10:57:05.093Z,1.19
2019-01-25T10:59:05.285Z,1.31
2019-01-25T11:01:05.161Z,1.38
2019-01-25T11:03:05.172Z,1.31
2019-01-25T11:05:05.967Z,1.38
2019-01-25T11:07:05.178Z,1.25
2019-01-25T11:08:22.144Z,1.25
2019-01-25T11:09:05.194Z,1.19
2019-01-25T11:11:05.966Z,1.13
2019-01-25T11:13:05.284Z,1.06
2019-01-25T11:15:05.171Z,0.94
2019-01-25T11:17:05.220Z,0.94
2019-01-25T11:19:05.161Z,1
2019-01-25T11:21:05.189Z,1
2019-01-25T11:23:05.178Z,1.13
2019-01-25T11:23:22.057Z,1.19
2019-01-25T11:25:06.076Z,1.31
2019-01-25T11:27:05.189Z,1.38
2019-01-25T11:29:05.204Z,1.31
2019-01-25T11:31:05.282Z,1.31
2019-01-25T11:33:05.170Z,1.44
2019-01-25T11:35:05.160Z,1.38
2019-01-25T11:37:05.161Z,1.38
2019-01-25T11:38:22.154Z,1.38
2019-01-25T11:39:05.160Z,1.38
2019-01-25T11:41:05.244Z,1.38
2019-01-25T11:43:08.669Z,1.31
2019-01-25T11:45:05.192Z,1.31
2019-01-25T11:47:05.159Z,1.31
2019-01-25T11:49:05.202Z,1.38
2019-01-25T11:51:06.042Z,1.44
2019-01-25T11:53:05.167Z,1.5
2019-01-25T11:53:22.100Z,1.56
2019-01-25T11:55:05.188Z,1.63
2019-01-25T11:57:06.036Z,1.56
2019-01-25T11:59:06.061Z,1.5
2019-01-25T12:01:05.208Z,1.56
2019-01-25T12:03:06.008Z,1.63
2019-01-25T12:05:05.155Z,1.63
2019-01-25T12:07:05.177Z,1.75
2019-01-25T12:08:22.112Z,1.81
2019-01-25T12:09:05.194Z,1.88
2019-01-25T12:11:06.009Z,1.81
2019-01-25T12:13:05.138Z,1.81
2019-01-25T12:15:05.197Z,1.94
2019-01-25T12:17:05.127Z,1.88
2019-01-25T12:19:05.139Z,1.88
2019-01-25T12:21:05.171Z,1.75
2019-01-25T12:23:05.202Z,1.75
2019-01-25T12:23:22.109Z,1.75
2019-01-25T12:25:05.202Z,1.81
2019-01-25T12:27:05.167Z,1.81
2019-01-25T12:29:05.184Z,1.88
2019-01-25T12:31:05.196Z,2
2019-01-25T12:33:05.130Z,2
2019-01-25T12:35:07.200Z,1.94
2019-01-25T12:37:05.191Z,2
2019-01-25T12:38:22.062Z,1.94
2019-01-25T12:39:06.057Z,2.06
2019-01-25T12:41:05.222Z,2.13
2019-01-25T12:43:05.184Z,2.13
2019-01-25T12:45:05.216Z,2.25
2019-01-25T12:47:05.192Z,2.25
2019-01-25T12:49:05.137Z,2.31
2019-01-25T12:51:06.044Z,2.31
2019-01-25T12:53:05.184Z,2.38
2019-01-25T12:53:22.110Z,2.38
2019-01-25T12:55:05.097Z,2.44
2019-01-25T12:57:05.172Z,2.44
2019-01-25T12:59:05.257Z,2.44
2019-01-25T13:01:06.230Z,2.44
2019-01-25T13:03:05.192Z,2.44
2019-01-25T13:05:06.912Z,2.38
2019-01-25T13:07:05.250Z,2.44
2019-01-25T13:08:22.102Z,2.38
2019-01-25T13:09:05.154Z,2.31
2019-01-25T13:11:06.075Z,2.31
2019-01-25T13:13:05.187Z,2.25
2019-01-25T13:15:05.192Z,2.25
2019-01-25T13:17:05.182Z,2.31
2019-01-25T13:19:05.195Z,2.38
2019-01-25T13:21:05.168Z,2.38
2019-01-25T13:23:05.167Z,2.38
2019-01-25T13:23:22.085Z,2.38
2019-01-25T13:25:05.285Z,2.44
2019-01-25T13:27:05.181Z,2.38
2019-01-25T13:29:05.171Z,2.38
2019-01-25T13:31:05.186Z,2.38
2019-01-25T13:33:05.186Z,2.38
2019-01-25T13:35:06.071Z,2.31
2019-01-25T13:37:05.197Z,2.31
2019-01-25T13:38:22.122Z,2.25
2019-01-25T13:39:06.133Z,2.25
2019-01-25T13:41:05.172Z,2.31
2019-01-25T13:43:06.083Z,2.31
2019-01-25T13:45:05.171Z,2.31
2019-01-25T13:47:05.181Z,2.38
2019-01-25T13:49:05.152Z,2.31
2019-01-25T13:51:05.185Z,2.31
2019-01-25T13:53:06.058Z,2.38
2019-01-25T13:53:22.109Z,2.31
2019-01-25T13:55:06.015Z,2.31
2019-01-25T13:57:05.185Z,2.31
2019-01-25T13:59:05.161Z,2.31
2019-01-25T14:01:05.194Z,2.31
2019-01-25T14:03:05.146Z,2.25
2019-01-25T14:05:05.175Z,2.31
2019-01-25T14:07:06.076Z,2.25
2019-01-25T14:08:22.128Z,2.31
2019-01-25T14:09:05.196Z,2.31
2019-01-25T14:11:05.171Z,2.38
2019-01-25T14:13:05.187Z,2.31
2019-01-25T14:15:06.078Z,2.38
2019-01-25T14:17:05.140Z,2.25
2019-01-25T14:19:05.159Z,2.25
2019-01-25T14:21:05.203Z,2.25
2019-01-25T14:23:06.051Z,2.31
2019-01-25T14:23:22.097Z,2.31
2019-01-25T14:25:05.213Z,2.38
2019-01-25T14:27:05.198Z,2.25
2019-01-25T14:29:06.062Z,2.25
2019-01-25T14:31:05.181Z,2.31
2019-01-25T14:33:05.183Z,2.25
2019-01-25T14:35:05.213Z,2.25
2019-01-25T14:37:05.187Z,2.19
2019-01-25T14:38:22.221Z,2.19
2019-01-25T14:39:05.111Z,2.19
2019-01-25T14:41:05.198Z,2.13
2019-01-25T14:43:05.188Z,2.19
2019-01-25T14:45:05.258Z,2.19
2019-01-25T14:47:05.114Z,2.19
2019-01-25T14:49:05.179Z,2.19
2019-01-25T14:51:05.194Z,2.19
2019-01-25T14:53:05.191Z,2.19
2019-01-25T14:53:22.988Z,2.19
2019-01-25T14:55:05.241Z,2.19
2019-01-25T14:57:05.199Z,2.19
2019-01-25T14:59:05.994Z,2.19
2019-01-25T15:01:05.194Z,2.19
2019-01-25T15:03:05.199Z,2.25
2019-01-25T15:05:05.201Z,2.19
2019-01-25T15:07:05.196Z,2.25
2019-01-25T15:08:22.147Z,2.25
2019-01-25T15:09:05.179Z,2.25
2019-01-25T15:11:05.189Z,2.19
2019-01-25T15:13:05.218Z,2.25
2019-01-25T15:15:05.194Z,2.25
2019-01-25T15:17:05.174Z,2.19
2019-01-25T15:19:05.175Z,2.13
2019-01-25T15:21:05.189Z,2.13
2019-01-25T15:23:05.204Z,2.06
2019-01-25T15:23:23.930Z,2.06
2019-01-25T15:25:05.197Z,2
2019-01-25T15:27:05.200Z,2
2019-01-25T15:29:05.160Z,2
2019-01-25T15:31:05.195Z,1.94
2019-01-25T15:33:05.180Z,1.88
2019-01-25T15:35:05.104Z,1.88
2019-01-25T15:37:15.350Z,1.81
2019-01-25T15:38:22.098Z,1.75
2019-01-25T15:39:05.154Z,1.75
2019-01-25T15:41:05.200Z,1.75
2019-01-25T15:43:05.140Z,1.75
2019-01-25T15:45:05.199Z,1.69
2019-01-25T15:47:05.185Z,1.63
2019-01-25T15:49:06.152Z,1.63
2019-01-25T15:51:05.215Z,1.56
2019-01-25T15:53:05.123Z,1.56
2019-01-25T15:53:22.006Z,1.56
2019-01-25T15:55:05.171Z,1.5
2019-01-25T15:57:07.020Z,1.5
2019-01-25T15:59:06.064Z,1.5
2019-01-25T16:01:05.171Z,1.5
2019-01-25T16:03:05.188Z,1.5
2019-01-25T16:05:05.240Z,1.44
2019-01-25T16:07:05.186Z,1.38
2019-01-25T16:08:22.154Z,1.38
2019-01-25T16:09:05.398Z,1.38
2019-01-25T16:11:05.170Z,1.31
2019-01-25T16:13:06.078Z,1.25
2019-01-25T16:15:05.191Z,1.25
2019-01-25T16:17:05.249Z,1.25
2019-01-25T16:19:05.196Z,1.19
2019-01-25T16:21:05.141Z,1.19
2019-01-25T16:23:05.174Z,1.19
2019-01-25T16:23:22.116Z,1.19
2019-01-25T16:25:06.097Z,1.13
2019-01-25T16:27:05.288Z,1.13
2019-01-25T16:29:05.185Z,1.13
2019-01-25T16:31:05.174Z,1.13
2019-01-25T16:33:05.182Z,1.13
2019-01-25T16:35:05.223Z,1.13
2019-01-25T16:37:05.195Z,1.13
2019-01-25T16:38:22.147Z,1.13
2019-01-25T16:39:05.102Z,1.13
2019-01-25T16:41:05.191Z,1.19
2019-01-25T16:43:05.192Z,1.13
2019-01-25T16:45:05.190Z,1.13
2019-01-25T16:47:05.153Z,1.06
2019-01-25T16:49:06.010Z,1.13
2019-01-25T16:51:05.175Z,1.06
2019-01-25T16:53:05.203Z,1
2019-01-25T16:53:22.163Z,1
2019-01-25T16:55:05.192Z,0.94
2019-01-25T16:57:05.186Z,0.94
2019-01-25T16:59:05.146Z,0.94
2019-01-25T17:01:05.225Z,0.94
2019-01-25T17:03:05.187Z,0.94
2019-01-25T17:05:05.185Z,1
2019-01-25T17:07:05.217Z,0.94
2019-01-25T17:08:22.149Z,0.94
2019-01-25T17:09:05.200Z,0.94
2019-01-25T17:11:05.189Z,0.94
2019-01-25T17:13:06.051Z,1
2019-01-25T17:15:05.184Z,1
2019-01-25T17:17:05.221Z,0.94
2019-01-25T17:19:05.168Z,0.94
2019-01-25T17:21:05.214Z,1
2019-01-25T17:23:05.202Z,0.94
2019-01-25T17:23:22.109Z,0.94
2019-01-25T17:25:05.296Z,1
2019-01-25T17:27:05.154Z,1
2019-01-25T17:29:05.203Z,0.94
2019-01-25T17:31:05.189Z,1
2019-01-25T17:33:05.155Z,1
2019-01-25T17:35:05.246Z,1
2019-01-25T17:37:05.122Z,1
2019-01-25T17:38:22.129Z,1
2019-01-25T17:39:05.175Z,1
2019-01-25T17:41:05.282Z,1
2019-01-25T17:43:05.175Z,0.94
2019-01-25T17:45:05.189Z,1
2019-01-25T17:47:05.168Z,1
2019-01-25T17:49:05.198Z,1.06
2019-01-25T17:51:05.274Z,1.06
2019-01-25T17:53:05.299Z,1.06
2019-01-25T17:53:22.096Z,1.06
2019-01-25T17:55:05.204Z,1.06
2019-01-25T17:57:05.168Z,1.06
2019-01-25T17:59:05.162Z,1.06
2019-01-25T18:01:05.174Z,1.06
2019-01-25T18:03:05.262Z,1.06
2019-01-25T18:05:05.202Z,1.13
2019-01-25T18:07:05.188Z,1.13
2019-01-25T18:08:22.189Z,1.13
2019-01-25T18:09:06.079Z,1.13
2019-01-25T18:11:06.080Z,1.19
2019-01-25T18:13:05.175Z,1.19
2019-01-25T18:15:05.196Z,1.19
2019-01-25T18:17:05.184Z,1.25
2019-01-25T18:19:05.222Z,1.25
2019-01-25T18:21:05.191Z,1.19
2019-01-25T18:23:05.190Z,1.19
2019-01-25T18:23:22.099Z,1.19
2019-01-25T18:25:05.185Z,1.19
2019-01-25T18:27:05.171Z,1.25
2019-01-25T18:29:06.152Z,1.25
2019-01-25T18:31:05.276Z,1.25
2019-01-25T18:33:05.180Z,1.25
2019-01-25T18:35:05.179Z,1.25
2019-01-25T18:37:05.254Z,1.25
2019-01-25T18:38:23.031Z,1.25
2019-01-25T18:39:05.138Z,1.25
2019-01-25T18:41:05.170Z,1.25
2019-01-25T18:43:05.177Z,1.25
2019-01-25T18:45:05.188Z,1.25
2019-01-25T18:47:06.059Z,1.25
2019-01-25T18:49:05.158Z,1.25
2019-01-25T18:51:05.186Z,1.31
2019-01-25T18:53:05.182Z,1.31
2019-01-25T18:53:22.024Z,1.31
2019-01-25T18:55:05.139Z,1.31
2019-01-25T18:57:06.017Z,1.31
2019-01-25T18:59:05.225Z,1.31
2019-01-25T19:01:05.188Z,1.38
2019-01-25T19:03:05.168Z,1.38
2019-01-25T19:05:05.175Z,1.31
2019-01-25T19:07:06.056Z,1.38
2019-01-25T19:08:22.153Z,1.38
2019-01-25T19:09:05.124Z,1.38
2019-01-25T19:11:05.182Z,1.44
2019-01-25T19:13:05.216Z,1.44
2019-01-25T19:15:05.187Z,1.44
2019-01-25T19:17:05.185Z,1.44
2019-01-25T19:19:05.192Z,1.44
2019-01-25T19:21:05.178Z,1.44
2019-01-25T19:23:05.193Z,1.44
2019-01-25T19:23:22.039Z,1.5
2019-01-25T19:25:05.208Z,1.5
2019-01-25T19:27:05.184Z,1.44
2019-01-25T19:29:05.201Z,1.5
2019-01-25T19:31:05.177Z,1.5
2019-01-25T19:33:05.181Z,1.56
2019-01-25T19:35:05.130Z,1.56
2019-01-25T19:37:05.185Z,1.56
2019-01-25T19:38:23.021Z,1.56
2019-01-25T19:39:05.174Z,1.56
2019-01-25T19:41:05.264Z,1.56
2019-01-25T19:43:05.147Z,1.63
2019-01-25T19:45:11.609Z,1.63
2019-01-25T19:47:05.217Z,1.63
2019-01-25T19:49:05.131Z,1.63
2019-01-25T19:51:05.133Z,1.63
2019-01-25T19:53:05.182Z,1.63
2019-01-25T19:53:23.573Z,1.63
2019-01-25T19:55:05.200Z,1.63
2019-01-25T19:57:05.180Z,1.63
2019-01-25T19:59:05.167Z,1.63
2019-01-25T20:01:05.153Z,1.63
2019-01-25T20:03:05.349Z,1.69
2019-01-25T20:05:05.194Z,1.69
2019-01-25T20:07:05.184Z,1.69
2019-01-25T20:08:22.140Z,1.69
2019-01-25T20:09:05.119Z,1.69
2019-01-25T20:11:05.219Z,1.69
2019-01-25T20:13:05.162Z,1.63
2019-01-25T20:15:05.202Z,1.69
2019-01-25T20:17:05.186Z,1.69
2019-01-25T20:19:05.151Z,1.69
2019-01-25T20:21:05.186Z,1.69
2019-01-25T20:23:05.195Z,1.69
2019-01-25T20:23:22.061Z,1.69
2019-01-25T20:25:05.191Z,1.69
2019-01-25T20:27:05.176Z,1.69
2019-01-25T20:29:05.186Z,1.69
2019-01-25T20:31:05.217Z,1.75
2019-01-25T20:33:06.074Z,1.75
2019-01-25T20:35:05.222Z,1.69
2019-01-25T20:37:05.190Z,1.75
2019-01-25T20:38:22.150Z,1.75
2019-01-25T20:39:06.051Z,1.75
2019-01-25T20:41:05.181Z,1.81
2019-01-25T20:43:05.184Z,1.81
2019-01-25T20:45:05.257Z,1.81
2019-01-25T20:47:05.171Z,1.81
2019-01-25T20:49:05.222Z,1.88
2019-01-25T20:51:05.187Z,1.88
2019-01-25T20:53:05.194Z,1.81
2019-01-25T20:53:22.113Z,1.88
2019-01-25T20:55:05.175Z,1.88
2019-01-25T20:57:05.120Z,1.88
2019-01-25T20:59:10.114Z,1.88
2019-01-25T21:01:05.175Z,1.88
2019-01-25T21:03:05.157Z,1.88
2019-01-25T21:05:05.172Z,1.88
2019-01-25T21:07:05.195Z,1.94
2019-01-25T21:08:22.116Z,1.94
2019-01-25T21:09:05.185Z,1.94
2019-01-25T21:11:05.177Z,2
2019-01-25T21:13:05.414Z,2
2019-01-25T21:15:05.126Z,2
2019-01-25T21:17:06.065Z,2
2019-01-25T21:19:05.185Z,2.06
2019-01-25T21:21:05.175Z,2.06
2019-01-25T21:23:05.188Z,2.06
2019-01-25T21:23:22.100Z,2.06
2019-01-25T21:25:05.193Z,2.13
2019-01-25T21:27:05.192Z,2.13
2019-01-25T21:29:05.185Z,2.06
2019-01-25T21:31:05.167Z,2.06
2019-01-25T21:33:05.174Z,2.13
2019-01-25T21:35:05.259Z,2.13
2019-01-25T21:37:05.190Z,2.06
2019-01-25T21:38:22.143Z,2.13
2019-01-25T21:39:06.396Z,2.13
2019-01-25T21:41:05.205Z,2.13
2019-01-25T21:43:05.197Z,2.13
2019-01-25T21:45:05.127Z,2.19
2019-01-25T21:47:05.191Z,2.13
2019-01-25T21:49:05.180Z,2.19
2019-01-25T21:51:05.181Z,2.19
2019-01-25T21:53:05.164Z,2.19
2019-01-25T21:53:22.030Z,2.19
2019-01-25T21:55:05.172Z,2.25
2019-01-25T21:57:05.177Z,2.25
2019-01-25T21:59:05.170Z,2.25
2019-01-25T22:01:05.155Z,2.25
2019-01-25T22:03:05.191Z,2.25
2019-01-25T22:05:05.166Z,2.31
2019-01-25T22:07:05.147Z,2.31
2019-01-25T22:08:22.137Z,2.31
2019-01-25T22:09:05.190Z,2.31
2019-01-25T22:11:05.194Z,2.44
2019-01-25T22:13:05.189Z,2.38
2019-01-25T22:15:05.157Z,2.38
2019-01-25T22:17:05.199Z,2.44
2019-01-25T22:19:05.194Z,2.38
2019-01-25T22:21:06.144Z,2.44
2019-01-25T22:23:05.133Z,2.44
2019-01-25T22:23:22.062Z,2.44
2019-01-25T22:25:05.175Z,2.44
2019-01-25T22:27:05.178Z,2.44
2019-01-25T22:29:05.128Z,2.44
2019-01-25T22:31:05.224Z,2.5
2019-01-25T22:33:05.172Z,2.5
2019-01-25T22:35:05.164Z,2.56
2019-01-25T22:37:06.929Z,2.56
2019-01-25T22:38:22.153Z,2.56
2019-01-25T22:39:05.191Z,2.56
2019-01-25T22:41:05.192Z,2.56
2019-01-25T22:43:05.475Z,2.56
2019-01-25T22:45:05.190Z,2.63
2019-01-25T22:47:05.189Z,2.69
2019-01-25T22:49:05.171Z,2.69
2019-01-25T22:51:05.139Z,2.69
2019-01-25T22:53:05.205Z,2.69
2019-01-25T22:53:22.125Z,2.69
2019-01-25T22:55:05.215Z,2.69
2019-01-25T22:57:05.221Z,2.75
2019-01-25T22:59:05.184Z,2.75
2019-01-25T23:01:05.189Z,2.75
2019-01-25T23:03:05.059Z,2.75
2019-01-25T23:05:05.223Z,2.75
2019-01-25T23:07:05.189Z,2.75
2019-01-25T23:08:22.140Z,2.75
2019-01-25T23:09:05.198Z,2.75
2019-01-25T23:11:05.194Z,2.81
2019-01-25T23:13:05.185Z,2.88
2019-01-25T23:15:05.144Z,2.88
2019-01-25T23:17:05.179Z,2.88
2019-01-25T23:19:05.188Z,2.81
2019-01-25T23:21:05.206Z,2.81
2019-01-25T23:23:05.136Z,2.94
2019-01-25T23:23:22.111Z,2.94